createdAt,value
2023-06-19T00:01:55.155Z,10.67
2023-06-19T00:04:23.167Z,10.20
2023-06-19T00:06:51.148Z,9.97
2023-06-19T00:09:19.351Z,11.40
2023-06-19T00:11:47.356Z,13.00
2023-06-19T00:14:15.224Z,8.83
2023-06-19T00:16:44.474Z,11.07
2023-06-19T00:19:12.842Z,7.83
2023-06-19T00:21:40.887Z,10.07
2023-06-19T00:24:08.845Z,9.90
2023-06-19T00:26:36.843Z,8.60
2023-06-19T00:29:04.701Z,13.17
2023-06-19T00:31:32.483Z,10.60
2023-06-19T00:34:01.742Z,10.53
2023-06-19T00:36:30.220Z,12.77
2023-06-19T00:38:58.155Z,10.43
2023-06-19T00:41:28.726Z,8.23
2023-06-19T00:43:56.671Z,8.73
2023-06-19T00:46:24.866Z,9.60
2023-06-19T00:48:52.853Z,10.77
2023-06-19T00:51:22.396Z,10.87
2023-06-19T00:53:50.362Z,15.30
2023-06-19T00:56:19.317Z,9.97
2023-06-19T00:58:47.189Z,11.57
2023-06-19T01:01:16.216Z,12.43
2023-06-19T01:03:44.290Z,9.70
2023-06-19T01:06:16.455Z,12.23
2023-06-19T01:08:53.214Z,10.23
2023-06-19T01:11:27.490Z,10.97
2023-06-19T01:14:00.902Z,6.73
2023-06-19T01:16:31.080Z,6.77
2023-06-19T01:19:00.085Z,15.63
2023-06-19T01:21:28.043Z,11.83
2023-06-19T01:23:58.659Z,7.63
2023-06-19T01:26:28.716Z,8.33
2023-06-19T01:28:57.918Z,8.20
2023-06-19T01:31:30.915Z,6.43
2023-06-19T01:34:01.050Z,6.47
2023-06-19T01:36:29.879Z,7.47
2023-06-19T01:39:00.596Z,7.77
2023-06-19T01:41:30.067Z,9.87
2023-06-19T01:43:59.873Z,8.33
2023-06-19T01:46:28.346Z,5.60
2023-06-19T01:48:56.970Z,6.03
2023-06-19T01:51:24.889Z,9.17
2023-06-19T01:53:52.775Z,8.10
2023-06-19T01:56:22.061Z,5.40
2023-06-19T01:58:52.726Z,12.87
2023-06-19T02:01:20.804Z,4.70
2023-06-19T02:03:48.817Z,6.37
2023-06-19T02:06:16.794Z,6.23
2023-06-19T02:08:44.761Z,4.67
2023-06-19T02:11:13.328Z,7.07
2023-06-19T02:13:43.523Z,6.37
2023-06-19T02:16:11.492Z,3.93
2023-06-19T02:18:39.341Z,5.13
2023-06-19T02:21:07.246Z,6.37
2023-06-19T02:23:36.531Z,5.37
2023-06-19T02:26:04.367Z,6.20
2023-06-19T02:28:32.258Z,6.23
2023-06-19T02:31:01.550Z,7.10
2023-06-19T02:33:29.979Z,4.17
2023-06-19T02:36:00.259Z,7.33
2023-06-19T02:38:30.903Z,4.37
2023-06-19T02:41:01.553Z,5.03
2023-06-19T02:43:29.525Z,7.10
2023-06-19T02:45:57.519Z,4.87
2023-06-19T02:48:26.899Z,5.30
2023-06-19T02:50:55.261Z,3.73
2023-06-19T02:53:23.158Z,4.77
2023-06-19T02:55:51.097Z,4.73
2023-06-19T02:58:19.187Z,4.93
2023-06-19T03:00:48.259Z,4.03
2023-06-19T03:03:18.067Z,4.93
2023-06-19T03:05:47.383Z,3.90
2023-06-19T03:08:15.298Z,4.17
2023-06-19T03:10:43.482Z,3.07
2023-06-19T03:13:11.524Z,5.03
2023-06-19T03:15:40.287Z,3.80
2023-06-19T03:18:10.523Z,6.63
2023-06-19T03:20:40.153Z,4.37
2023-06-19T03:23:09.468Z,5.97
2023-06-19T03:25:38.029Z,5.50
2023-06-19T03:28:06.510Z,5.90
2023-06-19T03:30:35.588Z,4.87
2023-06-19T03:33:03.647Z,3.80
2023-06-19T03:35:47.040Z,8.90
2023-06-19T03:38:42.377Z,3.10
2023-06-19T03:41:13.478Z,3.47
2023-06-19T03:43:41.604Z,3.73
2023-06-19T03:46:09.982Z,3.77
2023-06-19T03:48:37.922Z,3.10
2023-06-19T03:51:05.887Z,5.30
2023-06-19T03:53:34.273Z,5.77
2023-06-19T03:56:03.604Z,5.47
2023-06-19T03:58:31.623Z,6.10
2023-06-19T04:00:59.489Z,10.73
2023-06-19T04:03:27.471Z,5.90
2023-06-19T04:05:55.393Z,3.20
2023-06-19T04:08:23.264Z,7.53
2023-06-19T04:10:51.099Z,3.50
2023-06-19T04:13:20.370Z,4.33
2023-06-19T04:15:51.274Z,3.33
2023-06-19T04:18:19.467Z,7.37
2023-06-19T04:20:47.390Z,4.97
2023-06-19T04:23:15.235Z,4.20
2023-06-19T04:25:43.432Z,4.77
2023-06-19T04:28:13.359Z,5.70
2023-06-19T04:30:43.958Z,6.17
2023-06-19T04:33:12.330Z,3.97
2023-06-19T04:35:41.978Z,4.20
2023-06-19T04:38:10.501Z,4.60
2023-06-19T04:40:38.454Z,5.47
2023-06-19T04:43:06.888Z,4.80
2023-06-19T04:45:34.942Z,4.03
2023-06-19T04:48:04.516Z,6.20
2023-06-19T04:50:32.582Z,6.33
2023-06-19T04:53:00.516Z,4.93
2023-06-19T04:55:28.404Z,5.33
2023-06-19T04:57:56.763Z,4.00
2023-06-19T05:00:25.515Z,4.60
2023-06-19T05:02:53.784Z,6.53
2023-06-19T05:05:24.645Z,5.03
2023-06-19T05:07:52.745Z,5.40
2023-06-19T05:10:20.652Z,4.10
2023-06-19T05:12:48.525Z,4.13
2023-06-19T05:15:16.565Z,5.40
2023-06-19T05:17:47.495Z,3.53
2023-06-19T05:20:15.758Z,4.00
2023-06-19T05:22:45.000Z,4.60
2023-06-19T05:25:13.017Z,4.50
2023-06-19T05:27:40.991Z,8.07
2023-06-19T05:30:10.098Z,6.80
2023-06-19T05:32:38.064Z,4.93
2023-06-19T05:35:06.787Z,5.47
2023-06-19T05:37:34.920Z,4.77
2023-06-19T05:40:04.897Z,4.60
2023-06-19T05:42:32.802Z,3.43
2023-06-19T05:45:00.688Z,3.67
2023-06-19T05:47:28.772Z,3.43
2023-06-19T05:49:56.626Z,3.90
2023-06-19T05:52:24.727Z,4.00
2023-06-19T05:54:53.279Z,5.63
2023-06-19T05:57:22.916Z,3.10
2023-06-19T05:59:51.103Z,3.33
2023-06-19T06:02:20.200Z,3.10
2023-06-19T06:04:48.317Z,5.00
2023-06-19T06:07:16.296Z,5.90
2023-06-19T06:09:44.202Z,3.10
2023-06-19T06:12:12.792Z,4.33
2023-06-19T06:14:42.531Z,4.60
2023-06-19T06:17:11.149Z,4.13
2023-06-19T06:19:39.918Z,3.43
2023-06-19T06:22:08.164Z,2.93
2023-06-19T06:24:36.044Z,2.80
2023-06-19T06:27:04.066Z,4.30
2023-06-19T06:29:31.904Z,3.03
2023-06-19T06:32:07.564Z,3.60
2023-06-19T06:34:35.875Z,3.20
2023-06-19T06:37:06.266Z,3.17
2023-06-19T06:39:34.787Z,3.03
2023-06-19T06:42:02.686Z,5.97
2023-06-19T06:44:30.602Z,3.83
2023-06-19T06:46:58.686Z,3.43
2023-06-19T06:49:27.890Z,2.60
2023-06-19T06:51:58.134Z,4.23
2023-06-19T06:54:26.325Z,2.73
2023-06-19T06:56:57.409Z,2.97
2023-06-19T06:59:25.768Z,2.97
2023-06-19T07:01:53.597Z,4.23
2023-06-19T07:04:21.461Z,3.70
2023-06-19T07:06:50.783Z,3.00
2023-06-19T07:09:19.153Z,2.50
2023-06-19T07:11:47.080Z,3.53
2023-06-19T07:14:14.969Z,4.97
2023-06-19T07:16:42.844Z,2.53
2023-06-19T07:19:10.749Z,4.47
2023-06-19T07:21:39.583Z,2.73
2023-06-19T07:24:09.358Z,4.23
2023-06-19T07:26:37.353Z,3.23
2023-06-19T07:29:05.215Z,4.50
2023-06-19T07:31:33.397Z,3.13
2023-06-19T07:34:01.227Z,2.87
2023-06-19T07:36:29.106Z,4.30
2023-06-19T07:38:57.475Z,4.20
2023-06-19T07:41:26.683Z,7.33
2023-06-19T07:43:54.699Z,3.50
2023-06-19T07:46:22.572Z,5.73
2023-06-19T07:48:50.487Z,3.40
2023-06-19T07:51:18.373Z,4.17
2023-06-19T07:53:46.204Z,3.77
2023-06-19T07:56:14.127Z,4.73
2023-06-19T07:58:43.398Z,4.30
2023-06-19T08:01:11.538Z,3.70
2023-06-19T08:03:39.929Z,3.30
2023-06-19T08:06:08.063Z,3.83
2023-06-19T08:08:35.942Z,4.87
2023-06-19T08:11:04.036Z,3.90
2023-06-19T08:13:31.919Z,4.27
2023-06-19T08:16:01.169Z,5.03
2023-06-19T08:18:29.034Z,3.27
2023-06-19T08:20:57.163Z,3.87
2023-06-19T08:23:24.984Z,3.47
2023-06-19T08:25:53.183Z,5.23
2023-06-19T08:28:21.131Z,5.47
2023-06-19T08:30:49.802Z,4.43
2023-06-19T08:33:19.868Z,4.23
2023-06-19T08:35:49.462Z,5.60
2023-06-19T08:38:17.387Z,3.97
2023-06-19T08:40:46.340Z,4.03
2023-06-19T08:43:15.077Z,5.60
2023-06-19T08:45:43.474Z,2.87
2023-06-19T08:48:16.468Z,3.07
2023-06-19T08:50:46.230Z,2.23
2023-06-19T08:53:14.866Z,6.17
2023-06-19T08:55:43.300Z,3.70
2023-06-19T08:58:13.339Z,5.27
2023-06-19T09:00:41.796Z,8.23
2023-06-19T09:03:14.582Z,3.57
2023-06-19T09:05:51.413Z,3.10
2023-06-19T09:08:20.705Z,2.77
2023-06-19T09:11:00.095Z,2.40
2023-06-19T09:13:29.800Z,2.87
2023-06-19T09:16:03.741Z,2.80
2023-06-19T09:18:32.989Z,10.10
2023-06-19T09:21:02.228Z,2.80
2023-06-19T09:23:30.126Z,2.43
2023-06-19T09:26:01.347Z,2.53
2023-06-19T09:28:33.937Z,3.60
2023-06-19T09:31:03.296Z,3.63
2023-06-19T09:33:33.730Z,4.33
2023-06-19T09:36:05.445Z,3.40
2023-06-19T09:38:34.780Z,3.37
2023-06-19T09:41:04.973Z,3.13
2023-06-19T09:43:36.784Z,4.83
2023-06-19T09:46:06.110Z,3.97
2023-06-19T09:48:35.958Z,2.47
2023-06-19T09:51:13.012Z,2.80
2023-06-19T09:53:41.925Z,3.30
2023-06-19T09:56:10.148Z,3.20
2023-06-19T09:58:39.337Z,5.23
2023-06-19T10:01:08.742Z,3.13
2023-06-19T10:03:38.690Z,3.30
2023-06-19T10:06:08.237Z,3.97
2023-06-19T10:08:41.587Z,2.60
2023-06-19T10:11:09.615Z,5.97
2023-06-19T10:13:39.914Z,4.83
2023-06-19T10:16:08.349Z,2.97
2023-06-19T10:18:48.229Z,5.30
2023-06-19T10:21:19.597Z,3.27
2023-06-19T10:23:56.059Z,3.30
2023-06-19T10:26:33.939Z,4.73
2023-06-19T10:29:02.279Z,2.93
2023-06-19T10:31:30.784Z,3.07
2023-06-19T10:33:59.078Z,4.23
2023-06-19T10:36:28.509Z,3.77
2023-06-19T10:38:56.853Z,2.50
2023-06-19T10:41:26.419Z,2.67
2023-06-19T10:43:59.179Z,6.13
2023-06-19T10:46:32.167Z,3.67
2023-06-19T10:49:02.503Z,3.70
2023-06-19T10:51:32.373Z,4.80
2023-06-19T10:54:00.273Z,3.50
2023-06-19T10:56:28.903Z,8.03
2023-06-19T10:59:01.138Z,6.63
2023-06-19T11:01:39.970Z,6.07
2023-06-19T11:04:09.532Z,5.00
2023-06-19T11:06:40.176Z,3.77
2023-06-19T11:09:09.826Z,5.07
2023-06-19T11:14:45.521Z,3.80
2023-06-19T11:17:13.825Z,5.33
2023-06-19T11:19:44.601Z,6.27
2023-06-19T11:22:13.219Z,6.63
2023-06-19T11:24:46.675Z,3.53
2023-06-19T11:27:28.238Z,3.27
2023-06-19T11:30:01.416Z,3.13
2023-06-19T11:32:33.551Z,3.60
2023-06-19T11:35:08.992Z,7.13
2023-06-19T11:37:37.262Z,7.30
2023-06-19T11:40:13.219Z,4.13
2023-06-19T11:42:49.891Z,3.50
2023-06-19T11:45:19.806Z,5.27
2023-06-19T11:47:48.522Z,3.47
2023-06-19T11:50:20.346Z,3.70
2023-06-19T11:52:49.002Z,6.20
2023-06-19T11:55:17.972Z,3.33
2023-06-19T11:57:45.925Z,5.67
2023-06-19T12:00:19.444Z,4.97
2023-06-19T12:02:49.041Z,4.50
2023-06-19T12:05:17.793Z,4.07
2023-06-19T12:07:45.608Z,4.10
2023-06-19T12:10:13.456Z,5.57
2023-06-19T12:12:41.964Z,7.13
2023-06-19T12:15:10.154Z,3.40
2023-06-19T12:17:39.538Z,5.83
2023-06-19T12:20:09.782Z,3.40
2023-06-19T12:22:37.872Z,3.83
2023-06-19T12:25:06.112Z,3.17
2023-06-19T12:27:34.816Z,4.00
2023-06-19T12:30:03.503Z,3.30
2023-06-19T12:32:31.685Z,4.07
2023-06-19T12:35:01.007Z,4.23
2023-06-19T12:37:29.196Z,3.53
2023-06-19T12:39:57.031Z,3.47
2023-06-19T12:42:24.907Z,5.50
2023-06-19T12:44:52.700Z,5.47
2023-06-19T12:47:21.889Z,6.53
2023-06-19T12:49:49.943Z,3.50
2023-06-19T12:52:19.168Z,4.93
2023-06-19T12:54:47.087Z,3.50
2023-06-19T12:57:14.928Z,4.03
2023-06-19T12:59:42.808Z,6.00
2023-06-19T13:02:12.733Z,4.80
2023-06-19T13:04:43.242Z,3.90
2023-06-19T13:07:11.102Z,3.97
2023-06-19T13:09:40.478Z,4.97
2023-06-19T13:12:09.325Z,4.07
2023-06-19T13:14:38.547Z,4.03
2023-06-19T13:17:07.277Z,3.73
2023-06-19T13:19:35.968Z,3.50
2023-06-19T13:22:03.980Z,7.43
2023-06-19T13:24:31.896Z,6.23
2023-06-19T13:27:01.349Z,3.80
2023-06-19T13:29:29.681Z,4.17
2023-06-19T13:31:57.654Z,5.83
2023-06-19T13:34:25.810Z,4.23
2023-06-19T13:36:53.696Z,3.47
2023-06-19T13:39:21.627Z,6.23
2023-06-19T13:41:49.857Z,3.33
2023-06-19T13:44:20.037Z,5.17
2023-06-19T13:46:48.170Z,3.87
2023-06-19T13:49:16.105Z,16.57
2023-06-19T13:51:45.337Z,7.80
2023-06-19T13:54:14.199Z,3.67
2023-06-19T13:56:43.489Z,3.77
2023-06-19T13:59:11.611Z,4.07
2023-06-19T14:01:42.278Z,4.77
2023-06-19T14:04:10.744Z,4.87
2023-06-19T14:06:39.586Z,3.67
2023-06-19T14:09:07.454Z,6.33
2023-06-19T14:11:35.260Z,3.77
2023-06-19T14:14:03.461Z,4.53
2023-06-19T14:16:31.379Z,3.47
2023-06-19T14:19:00.662Z,3.50
2023-06-19T14:21:28.467Z,4.33
2023-06-19T14:23:56.348Z,3.20
2023-06-19T14:26:24.185Z,6.00
2023-06-19T14:28:56.274Z,4.93
2023-06-19T14:31:24.764Z,3.00
2023-06-19T14:33:52.848Z,3.17
2023-06-19T14:36:22.336Z,3.33
2023-06-19T14:38:50.722Z,6.47
2023-06-19T14:41:18.654Z,4.63
2023-06-19T14:43:46.970Z,3.30
2023-06-19T14:46:25.919Z,5.83
2023-06-19T14:49:02.952Z,4.17
2023-06-19T14:51:32.260Z,4.30
2023-06-19T14:54:00.124Z,5.50
2023-06-19T14:56:27.984Z,7.07
2023-06-19T14:58:55.952Z,3.77
2023-06-19T15:01:24.155Z,3.40
2023-06-19T15:03:52.217Z,4.90
2023-06-19T15:06:20.134Z,3.40
2023-06-19T15:08:49.309Z,3.63
2023-06-19T15:11:17.152Z,3.57
2023-06-19T15:13:45.041Z,4.53
2023-06-19T15:16:13.362Z,5.30
2023-06-19T15:18:41.694Z,7.10
2023-06-19T15:21:09.590Z,3.07
2023-06-19T15:23:37.521Z,5.37
2023-06-19T15:26:07.418Z,3.00
2023-06-19T15:28:36.756Z,3.57
2023-06-19T15:31:04.974Z,4.27
2023-06-19T15:33:32.788Z,3.80
2023-06-19T15:36:00.615Z,4.87
2023-06-19T15:38:29.344Z,3.50
2023-06-19T15:40:57.408Z,3.43
2023-06-19T15:43:29.747Z,6.80
2023-06-19T15:45:57.969Z,4.63
2023-06-19T15:48:26.163Z,4.50
2023-06-19T15:50:53.956Z,5.67
2023-06-19T15:53:21.758Z,3.17
2023-06-19T15:55:49.610Z,3.57
2023-06-19T15:58:17.388Z,4.50
2023-06-19T16:00:49.097Z,4.50
2023-06-19T16:03:17.121Z,3.40
2023-06-19T16:06:01.765Z,5.03
2023-06-19T16:08:34.640Z,4.70
2023-06-19T16:11:04.324Z,5.03
2023-06-19T16:13:32.336Z,5.77
2023-06-19T16:16:01.711Z,4.43
2023-06-19T16:18:29.738Z,5.57
2023-06-19T16:20:57.539Z,3.97
2023-06-19T16:23:25.904Z,5.33
2023-06-19T16:25:53.787Z,4.33
2023-06-19T16:28:21.662Z,6.27
2023-06-19T16:30:49.662Z,5.20
2023-06-19T16:33:19.046Z,6.03
2023-06-19T16:35:46.909Z,5.57
2023-06-19T16:38:14.763Z,5.23
2023-06-19T16:40:42.611Z,5.87
2023-06-19T16:43:12.000Z,3.90
2023-06-19T16:45:39.965Z,5.17
2023-06-19T16:48:07.820Z,6.70
2023-06-19T16:50:37.214Z,5.73
2023-06-19T16:53:07.115Z,7.40
2023-06-19T16:55:35.059Z,4.93
2023-06-19T16:58:02.935Z,6.17
2023-06-19T17:00:30.749Z,6.20
2023-06-19T17:02:59.802Z,4.83
2023-06-19T17:05:27.887Z,4.53
2023-06-19T17:07:57.311Z,8.80
2023-06-19T17:10:25.756Z,4.97
2023-06-19T17:12:54.052Z,4.37
2023-06-19T17:15:21.995Z,5.27
2023-06-19T17:17:49.915Z,6.93
2023-06-19T17:20:17.868Z,8.43
2023-06-19T17:22:45.753Z,6.90
2023-06-19T17:25:15.227Z,5.73
2023-06-19T17:27:43.826Z,4.33
2023-06-19T17:30:13.299Z,4.60
2023-06-19T17:32:45.043Z,7.30
2023-06-19T17:35:13.248Z,5.97
2023-06-19T17:37:42.497Z,5.30
2023-06-19T17:40:13.753Z,5.60
2023-06-19T17:42:43.335Z,5.03
2023-06-19T17:45:12.348Z,5.93
2023-06-19T17:47:40.599Z,5.00
2023-06-19T17:50:09.518Z,5.67
2023-06-19T17:52:38.285Z,4.50
2023-06-19T17:55:06.980Z,6.93
2023-06-19T17:57:34.990Z,4.57
2023-06-19T18:00:05.898Z,5.07
2023-06-19T18:02:40.250Z,5.67
2023-06-19T18:05:08.819Z,7.67
2023-06-19T18:07:36.661Z,6.30
2023-06-19T18:10:05.016Z,5.00
2023-06-19T18:12:33.013Z,6.37
2023-06-19T18:15:00.959Z,7.10
2023-06-19T18:17:30.445Z,5.20
2023-06-19T18:19:59.983Z,5.00
2023-06-19T18:22:27.976Z,4.67
2023-06-19T18:24:55.975Z,5.33
2023-06-19T18:27:23.851Z,4.90
2023-06-19T18:29:51.674Z,5.43
2023-06-19T18:32:19.509Z,6.43
2023-06-19T18:34:48.801Z,6.30
2023-06-19T18:37:16.707Z,6.30
2023-06-19T18:39:44.545Z,4.57
2023-06-19T18:42:12.719Z,7.07
2023-06-19T18:44:40.553Z,6.63
2023-06-19T18:47:08.815Z,6.77
2023-06-19T18:49:36.801Z,7.10
2023-06-19T18:52:07.088Z,5.20
2023-06-19T18:54:35.043Z,5.77
2023-06-19T18:57:02.987Z,4.90
2023-06-19T18:59:30.827Z,4.10
2023-06-19T19:01:58.818Z,5.53
2023-06-19T19:04:28.369Z,7.40
2023-06-19T19:06:56.173Z,5.47
2023-06-19T19:09:25.361Z,6.53
2023-06-19T19:11:54.131Z,4.77
2023-06-19T19:14:21.989Z,7.03
2023-06-19T19:16:49.837Z,6.07
2023-06-19T19:19:17.716Z,7.57
2023-06-19T19:21:45.573Z,6.13
2023-06-19T19:24:13.442Z,7.87
2023-06-19T19:26:44.050Z,7.20
2023-06-19T19:29:12.273Z,7.63
2023-06-19T19:31:40.402Z,6.17
2023-06-19T19:34:08.251Z,6.00
2023-06-19T19:36:36.890Z,8.40
2023-06-19T19:39:04.864Z,7.80
2023-06-19T19:41:32.925Z,8.57
2023-06-19T19:44:02.141Z,8.13
2023-06-19T19:46:30.339Z,6.73
2023-06-19T19:48:58.194Z,4.57
2023-06-19T19:51:26.157Z,7.50
2023-06-19T19:53:53.997Z,7.20
2023-06-19T19:56:21.953Z,8.77
2023-06-19T19:58:52.215Z,5.70
2023-06-19T20:01:21.768Z,6.60
2023-06-19T20:03:49.854Z,8.53
2023-06-19T20:06:17.769Z,7.73
2023-06-19T20:08:45.864Z,5.87
2023-06-19T20:11:14.284Z,7.10
2023-06-19T20:13:42.152Z,8.33
2023-06-19T20:16:11.105Z,5.97
2023-06-19T20:18:40.559Z,7.53
2023-06-19T20:21:08.460Z,6.00
2023-06-19T20:23:36.323Z,9.07
2023-06-19T20:26:04.205Z,6.20
2023-06-19T20:28:32.059Z,5.97
2023-06-19T20:30:59.915Z,8.90
2023-06-19T20:33:27.777Z,6.83
2023-06-19T20:35:57.059Z,6.00
2023-06-19T20:38:24.924Z,5.97
2023-06-19T20:40:52.792Z,6.20
2023-06-19T20:43:20.670Z,8.03
2023-06-19T20:45:48.703Z,6.00
2023-06-19T20:48:16.518Z,5.13
2023-06-19T20:50:44.438Z,7.50
2023-06-19T20:53:13.749Z,16.00
2023-06-19T20:55:41.580Z,7.50
2023-06-19T20:58:09.486Z,6.90
2023-06-19T21:00:37.361Z,6.63
2023-06-19T21:03:08.119Z,7.33
2023-06-19T21:05:38.003Z,6.33
2023-06-19T21:08:06.188Z,6.13
2023-06-19T21:10:35.392Z,7.40
2023-06-19T21:13:21.028Z,5.80
2023-06-19T21:15:50.720Z,7.60
2023-06-19T21:18:18.901Z,5.80
2023-06-19T21:20:46.723Z,8.10
2023-06-19T21:23:14.850Z,9.27
2023-06-19T21:25:44.034Z,5.93
2023-06-19T21:28:11.935Z,9.17
2023-06-19T21:30:39.732Z,6.27
2023-06-19T21:33:07.587Z,6.80
2023-06-19T21:35:35.546Z,8.10
2023-06-19T21:38:03.315Z,6.93
2023-06-19T21:40:31.194Z,7.70
2023-06-19T21:43:00.349Z,6.03
2023-06-19T21:45:28.211Z,6.20
2023-06-19T21:47:56.752Z,9.73
2023-06-19T21:50:24.893Z,9.87
2023-06-19T21:52:53.312Z,7.07
2023-06-19T21:55:21.286Z,9.53
2023-06-19T21:57:59.333Z,14.17
2023-06-19T22:00:30.180Z,10.13
2023-06-19T22:02:58.690Z,7.33
2023-06-19T22:05:27.289Z,8.37
2023-06-19T22:07:55.588Z,7.10
2023-06-19T22:10:24.774Z,11.20
2023-06-19T22:12:52.962Z,12.73
2023-06-19T22:15:20.808Z,21.13
2023-06-19T22:17:50.110Z,9.73
2023-06-19T22:20:19.762Z,11.47
2023-06-19T22:22:49.437Z,8.33
2023-06-19T22:25:17.737Z,10.93
2023-06-19T22:27:47.346Z,9.43
2023-06-19T22:30:16.658Z,8.60
2023-06-19T22:32:44.587Z,9.77
2023-06-19T22:35:13.912Z,7.30
2023-06-19T22:37:42.317Z,9.10
2023-06-19T22:40:11.263Z,8.73
2023-06-19T22:42:39.892Z,9.77
2023-06-19T22:45:08.662Z,26.23
2023-06-19T22:47:39.294Z,11.17
2023-06-19T22:50:08.490Z,8.17
2023-06-19T22:52:38.044Z,7.43
2023-06-19T22:55:07.056Z,8.40
2023-06-19T22:57:36.094Z,6.83
2023-06-19T23:00:08.934Z,10.63
2023-06-19T23:02:36.980Z,7.93
2023-06-19T23:05:05.389Z,10.03
2023-06-19T23:07:33.469Z,8.87
2023-06-19T23:10:04.777Z,10.33
2023-06-19T23:12:32.862Z,10.50
2023-06-19T23:15:00.820Z,8.40
2023-06-19T23:17:28.710Z,7.33
2023-06-19T23:19:59.128Z,10.13
2023-06-19T23:22:27.572Z,8.13
2023-06-19T23:24:55.708Z,9.00
2023-06-19T23:27:24.934Z,10.53
2023-06-19T23:29:57.004Z,6.97
2023-06-19T23:32:24.840Z,8.40
2023-06-19T23:34:52.784Z,8.00
2023-06-19T23:37:20.869Z,10.37
2023-06-19T23:39:48.643Z,6.77
2023-06-19T23:42:16.633Z,8.73
2023-06-19T23:44:45.810Z,6.73
2023-06-19T23:47:13.678Z,7.13
2023-06-19T23:49:42.670Z,7.40
2023-06-19T23:52:10.796Z,8.53
2023-06-19T23:54:38.579Z,7.70
2023-06-19T23:57:08.723Z,10.33
2023-06-19T23:59:36.573Z,8.27
